sensor_id;sensor_type;location;lat;lon;timestamp;P1;durP1;ratioP1;P2;durP2;ratioP2
50301;SDS011;36550;50.472;19.744;2023-04-16T00:01:34;18.60;;;10.70;;
50301;SDS011;36550;50.472;19.744;2023-04-16T00:04:18;18.90;;;10.10;;
50301;SDS011;36550;50.472;19.744;2023-04-16T00:07:02;18.70;;;10.40;;
50301;SDS011;36550;50.472;19.744;2023-04-16T00:09:46;17.90;;;10.60;;
50301;SDS011;36550;50.472;19.744;2023-04-16T00:12:30;19.90;;;10.30;;
50301;SDS011;36550;50.472;19.744;2023-04-16T00:15:14;19.20;;;10.30;;
50301;SDS011;36550;50.472;19.744;2023-04-16T00:17:58;21.30;;;9.20;;
50301;SDS011;36550;50.472;19.744;2023-04-16T00:20:42;19.80;;;9.60;;
50301;SDS011;36550;50.472;19.744;2023-04-16T00:23:26;22.00;;;10.60;;
50301;SDS011;36550;50.472;19.744;2023-04-16T00:26:10;20.00;;;9.40;;
50301;SDS011;36550;50.472;19.744;2023-04-16T00:28:54;24.10;;;11.10;;
50301;SDS011;36550;50.472;19.744;2023-04-16T00:31:38;23.50;;;11.60;;
50301;SDS011;36550;50.472;19.744;2023-04-16T00:34:22;25.40;;;12.70;;
50301;SDS011;36550;50.472;19.744;2023-04-16T00:37:05;21.90;;;11.90;;
50301;SDS011;36550;50.472;19.744;2023-04-16T00:39:49;23.40;;;11.70;;
50301;SDS011;36550;50.472;19.744;2023-04-16T00:42:33;23.00;;;11.00;;
50301;SDS011;36550;50.472;19.744;2023-04-16T00:45:19;25.80;;;12.30;;
50301;SDS011;36550;50.472;19.744;2023-04-16T00:48:03;27.10;;;13.20;;
50301;SDS011;36550;50.472;19.744;2023-04-16T00:50:48;27.10;;;14.10;;
50301;SDS011;36550;50.472;19.744;2023-04-16T00:53:33;27.80;;;14.70;;
50301;SDS011;36550;50.472;19.744;2023-04-16T00:56:17;24.20;;;14.10;;
50301;SDS011;36550;50.472;19.744;2023-04-16T00:59:01;24.90;;;12.90;;
50301;SDS011;36550;50.472;19.744;2023-04-16T01:01:45;23.50;;;11.00;;
50301;SDS011;36550;50.472;19.744;2023-04-16T01:04:29;15.30;;;9.30;;
50301;SDS011;36550;50.472;19.744;2023-04-16T01:07:13;18.50;;;9.50;;
50301;SDS011;36550;50.472;19.744;2023-04-16T01:09:57;19.50;;;11.00;;
50301;SDS011;36550;50.472;19.744;2023-04-16T01:12:42;26.80;;;14.00;;
50301;SDS011;36550;50.472;19.744;2023-04-16T01:15:25;28.10;;;14.10;;
50301;SDS011;36550;50.472;19.744;2023-04-16T01:18:13;29.20;;;15.30;;
50301;SDS011;36550;50.472;19.744;2023-04-16T01:21:01;29.40;;;14.00;;
50301;SDS011;36550;50.472;19.744;2023-04-16T01:23:45;25.80;;;12.60;;
50301;SDS011;36550;50.472;19.744;2023-04-16T01:26:30;29.20;;;14.10;;
50301;SDS011;36550;50.472;19.744;2023-04-16T01:29:14;32.50;;;16.30;;
50301;SDS011;36550;50.472;19.744;2023-04-16T01:31:57;35.00;;;19.20;;
50301;SDS011;36550;50.472;19.744;2023-04-16T01:34:42;42.90;;;20.40;;
50301;SDS011;36550;50.472;19.744;2023-04-16T01:37:26;35.70;;;19.10;;
50301;SDS011;36550;50.472;19.744;2023-04-16T01:40:11;39.30;;;18.30;;
50301;SDS011;36550;50.472;19.744;2023-04-16T01:42:55;37.90;;;19.00;;
50301;SDS011;36550;50.472;19.744;2023-04-16T01:45:39;36.00;;;17.50;;
50301;SDS011;36550;50.472;19.744;2023-04-16T01:48:23;34.30;;;16.10;;
50301;SDS011;36550;50.472;19.744;2023-04-16T01:51:07;40.70;;;17.70;;
50301;SDS011;36550;50.472;19.744;2023-04-16T01:53:53;39.70;;;18.20;;
50301;SDS011;36550;50.472;19.744;2023-04-16T01:56:38;46.80;;;19.40;;
50301;SDS011;36550;50.472;19.744;2023-04-16T01:59:22;40.20;;;17.90;;
50301;SDS011;36550;50.472;19.744;2023-04-16T02:02:07;43.40;;;19.50;;
50301;SDS011;36550;50.472;19.744;2023-04-16T02:04:56;47.10;;;20.80;;
50301;SDS011;36550;50.472;19.744;2023-04-16T02:07:40;44.30;;;19.70;;
50301;SDS011;36550;50.472;19.744;2023-04-16T02:10:23;49.80;;;20.90;;
50301;SDS011;36550;50.472;19.744;2023-04-16T02:13:07;63.60;;;22.90;;
50301;SDS011;36550;50.472;19.744;2023-04-16T02:15:52;61.90;;;22.80;;
50301;SDS011;36550;50.472;19.744;2023-04-16T02:22:15;53.90;;;21.60;;
50301;SDS011;36550;50.472;19.744;2023-04-16T02:24:59;51.60;;;21.60;;
50301;SDS011;36550;50.472;19.744;2023-04-16T02:27:43;51.50;;;20.80;;
50301;SDS011;36550;50.472;19.744;2023-04-16T02:30:27;54.40;;;21.50;;
50301;SDS011;36550;50.472;19.744;2023-04-16T02:33:11;50.60;;;22.20;;
50301;SDS011;36550;50.472;19.744;2023-04-16T02:35:55;53.30;;;21.10;;
50301;SDS011;36550;50.472;19.744;2023-04-16T02:38:39;49.70;;;21.70;;
50301;SDS011;36550;50.472;19.744;2023-04-16T02:41:23;53.70;;;23.10;;
50301;SDS011;36550;50.472;19.744;2023-04-16T02:44:07;46.10;;;21.10;;
50301;SDS011;36550;50.472;19.744;2023-04-16T02:46:52;50.60;;;21.70;;
50301;SDS011;36550;50.472;19.744;2023-04-16T02:49:35;56.10;;;23.00;;
50301;SDS011;36550;50.472;19.744;2023-04-16T02:52:19;50.60;;;22.10;;
50301;SDS011;36550;50.472;19.744;2023-04-16T02:55:03;53.50;;;22.60;;
50301;SDS011;36550;50.472;19.744;2023-04-16T02:57:48;52.70;;;22.00;;
50301;SDS011;36550;50.472;19.744;2023-04-16T03:00:32;51.50;;;21.40;;
50301;SDS011;36550;50.472;19.744;2023-04-16T03:03:15;49.90;;;23.30;;
50301;SDS011;36550;50.472;19.744;2023-04-16T03:06:00;49.60;;;23.20;;
50301;SDS011;36550;50.472;19.744;2023-04-16T03:08:44;55.00;;;23.80;;
50301;SDS011;36550;50.472;19.744;2023-04-16T03:11:28;53.00;;;22.40;;
50301;SDS011;36550;50.472;19.744;2023-04-16T03:14:12;53.40;;;23.20;;
50301;SDS011;36550;50.472;19.744;2023-04-16T03:16:56;48.00;;;21.90;;
50301;SDS011;36550;50.472;19.744;2023-04-16T03:19:41;53.40;;;23.10;;
50301;SDS011;36550;50.472;19.744;2023-04-16T03:22:24;52.60;;;24.00;;
50301;SDS011;36550;50.472;19.744;2023-04-16T03:25:08;93.00;;;38.40;;
50301;SDS011;36550;50.472;19.744;2023-04-16T03:27:52;52.00;;;22.50;;
50301;SDS011;36550;50.472;19.744;2023-04-16T03:30:36;47.80;;;21.40;;
50301;SDS011;36550;50.472;19.744;2023-04-16T03:33:20;50.70;;;22.00;;
50301;SDS011;36550;50.472;19.744;2023-04-16T03:36:05;47.40;;;20.60;;
50301;SDS011;36550;50.472;19.744;2023-04-16T03:38:49;50.90;;;21.70;;
50301;SDS011;36550;50.472;19.744;2023-04-16T03:41:33;50.90;;;22.10;;
50301;SDS011;36550;50.472;19.744;2023-04-16T03:44:17;51.60;;;22.70;;
50301;SDS011;36550;50.472;19.744;2023-04-16T03:47:01;48.90;;;22.50;;
50301;SDS011;36550;50.472;19.744;2023-04-16T03:49:45;38.40;;;18.50;;
50301;SDS011;36550;50.472;19.744;2023-04-16T03:52:29;35.40;;;17.90;;
50301;SDS011;36550;50.472;19.744;2023-04-16T03:55:13;41.40;;;20.40;;
50301;SDS011;36550;50.472;19.744;2023-04-16T03:57:57;40.70;;;22.90;;
50301;SDS011;36550;50.472;19.744;2023-04-16T04:00:45;45.30;;;23.60;;
50301;SDS011;36550;50.472;19.744;2023-04-16T04:03:29;42.50;;;20.80;;
50301;SDS011;36550;50.472;19.744;2023-04-16T04:06:13;43.10;;;20.80;;
50301;SDS011;36550;50.472;19.744;2023-04-16T04:08:57;41.10;;;21.20;;
50301;SDS011;36550;50.472;19.744;2023-04-16T04:11:42;46.70;;;22.10;;
50301;SDS011;36550;50.472;19.744;2023-04-16T04:14:26;48.80;;;21.80;;
50301;SDS011;36550;50.472;19.744;2023-04-16T04:17:10;41.60;;;21.60;;
50301;SDS011;36550;50.472;19.744;2023-04-16T04:19:54;43.50;;;22.00;;
50301;SDS011;36550;50.472;19.744;2023-04-16T04:22:37;51.30;;;24.80;;
50301;SDS011;36550;50.472;19.744;2023-04-16T04:25:21;47.00;;;23.40;;
50301;SDS011;36550;50.472;19.744;2023-04-16T04:28:05;51.10;;;24.30;;
50301;SDS011;36550;50.472;19.744;2023-04-16T04:30:49;51.40;;;23.90;;
50301;SDS011;36550;50.472;19.744;2023-04-16T04:33:33;56.20;;;25.60;;
50301;SDS011;36550;50.472;19.744;2023-04-16T04:36:17;58.30;;;25.70;;
50301;SDS011;36550;50.472;19.744;2023-04-16T04:39:01;58.80;;;25.60;;
50301;SDS011;36550;50.472;19.744;2023-04-16T04:41:45;61.80;;;26.40;;
50301;SDS011;36550;50.472;19.744;2023-04-16T04:44:29;58.60;;;27.50;;
50301;SDS011;36550;50.472;19.744;2023-04-16T04:47:13;59.30;;;27.10;;
50301;SDS011;36550;50.472;19.744;2023-04-16T04:49:57;62.70;;;30.20;;
50301;SDS011;36550;50.472;19.744;2023-04-16T04:52:41;55.80;;;25.20;;
50301;SDS011;36550;50.472;19.744;2023-04-16T04:55:25;54.90;;;26.00;;
50301;SDS011;36550;50.472;19.744;2023-04-16T04:58:09;55.20;;;26.10;;
50301;SDS011;36550;50.472;19.744;2023-04-16T05:00:53;51.40;;;26.30;;
50301;SDS011;36550;50.472;19.744;2023-04-16T05:03:37;52.80;;;26.20;;
50301;SDS011;36550;50.472;19.744;2023-04-16T05:06:21;48.00;;;26.70;;
50301;SDS011;36550;50.472;19.744;2023-04-16T05:09:04;49.60;;;24.90;;
50301;SDS011;36550;50.472;19.744;2023-04-16T05:11:48;47.70;;;25.10;;
50301;SDS011;36550;50.472;19.744;2023-04-16T05:14:33;44.10;;;24.30;;
50301;SDS011;36550;50.472;19.744;2023-04-16T05:17:18;48.00;;;24.50;;
50301;SDS011;36550;50.472;19.744;2023-04-16T05:20:02;45.90;;;23.40;;
50301;SDS011;36550;50.472;19.744;2023-04-16T05:22:47;42.00;;;23.20;;
50301;SDS011;36550;50.472;19.744;2023-04-16T05:25:31;47.30;;;23.60;;
50301;SDS011;36550;50.472;19.744;2023-04-16T05:28:15;45.40;;;24.20;;
50301;SDS011;36550;50.472;19.744;2023-04-16T05:30:59;45.20;;;25.20;;
50301;SDS011;36550;50.472;19.744;2023-04-16T05:33:43;44.90;;;24.60;;
50301;SDS011;36550;50.472;19.744;2023-04-16T05:36:27;44.20;;;23.30;;
50301;SDS011;36550;50.472;19.744;2023-04-16T05:39:12;46.20;;;22.10;;
50301;SDS011;36550;50.472;19.744;2023-04-16T05:41:57;44.30;;;22.80;;
50301;SDS011;36550;50.472;19.744;2023-04-16T05:44:41;45.30;;;23.90;;
50301;SDS011;36550;50.472;19.744;2023-04-16T05:47:25;47.40;;;26.30;;
50301;SDS011;36550;50.472;19.744;2023-04-16T05:50:09;49.40;;;26.00;;
50301;SDS011;36550;50.472;19.744;2023-04-16T05:52:53;55.40;;;26.30;;
50301;SDS011;36550;50.472;19.744;2023-04-16T05:55:37;47.00;;;24.90;;
50301;SDS011;36550;50.472;19.744;2023-04-16T05:58:20;52.70;;;26.00;;
50301;SDS011;36550;50.472;19.744;2023-04-16T06:01:04;55.10;;;27.90;;
50301;SDS011;36550;50.472;19.744;2023-04-16T06:03:50;47.20;;;24.70;;
50301;SDS011;36550;50.472;19.744;2023-04-16T06:06:34;44.30;;;23.20;;
50301;SDS011;36550;50.472;19.744;2023-04-16T06:09:19;44.40;;;25.10;;
50301;SDS011;36550;50.472;19.744;2023-04-16T06:12:03;55.00;;;29.10;;
50301;SDS011;36550;50.472;19.744;2023-04-16T06:14:48;60.60;;;31.80;;
50301;SDS011;36550;50.472;19.744;2023-04-16T06:17:32;57.60;;;27.10;;
50301;SDS011;36550;50.472;19.744;2023-04-16T06:20:16;43.80;;;23.90;;
50301;SDS011;36550;50.472;19.744;2023-04-16T06:22:59;39.70;;;21.40;;
50301;SDS011;36550;50.472;19.744;2023-04-16T06:25:43;44.70;;;22.80;;
50301;SDS011;36550;50.472;19.744;2023-04-16T06:28:28;39.20;;;21.80;;
50301;SDS011;36550;50.472;19.744;2023-04-16T06:31:12;44.70;;;23.10;;
50301;SDS011;36550;50.472;19.744;2023-04-16T06:33:56;38.60;;;21.00;;
50301;SDS011;36550;50.472;19.744;2023-04-16T06:36:40;43.50;;;21.20;;
50301;SDS011;36550;50.472;19.744;2023-04-16T06:39:24;48.00;;;21.90;;
50301;SDS011;36550;50.472;19.744;2023-04-16T06:42:08;31.70;;;17.80;;
50301;SDS011;36550;50.472;19.744;2023-04-16T06:44:52;33.70;;;18.10;;
50301;SDS011;36550;50.472;19.744;2023-04-16T06:47:36;32.00;;;18.40;;
50301;SDS011;36550;50.472;19.744;2023-04-16T06:50:20;30.80;;;16.80;;
50301;SDS011;36550;50.472;19.744;2023-04-16T06:53:06;30.60;;;17.60;;
50301;SDS011;36550;50.472;19.744;2023-04-16T06:55:50;34.70;;;18.00;;
50301;SDS011;36550;50.472;19.744;2023-04-16T06:58:34;32.50;;;18.00;;
50301;SDS011;36550;50.472;19.744;2023-04-16T07:01:18;36.50;;;19.70;;
50301;SDS011;36550;50.472;19.744;2023-04-16T07:04:03;34.50;;;19.30;;
50301;SDS011;36550;50.472;19.744;2023-04-16T07:06:47;34.40;;;19.20;;
50301;SDS011;36550;50.472;19.744;2023-04-16T07:09:31;36.20;;;19.00;;
50301;SDS011;36550;50.472;19.744;2023-04-16T07:12:15;35.40;;;18.90;;
50301;SDS011;36550;50.472;19.744;2023-04-16T07:14:59;35.20;;;18.60;;
50301;SDS011;36550;50.472;19.744;2023-04-16T07:17:43;31.40;;;18.50;;
50301;SDS011;36550;50.472;19.744;2023-04-16T07:20:27;37.50;;;20.90;;
50301;SDS011;36550;50.472;19.744;2023-04-16T07:23:12;30.80;;;18.40;;
50301;SDS011;36550;50.472;19.744;2023-04-16T07:25:55;30.40;;;18.60;;
50301;SDS011;36550;50.472;19.744;2023-04-16T07:28:39;31.00;;;17.60;;
50301;SDS011;36550;50.472;19.744;2023-04-16T07:31:23;24.80;;;16.00;;
50301;SDS011;36550;50.472;19.744;2023-04-16T07:34:08;27.30;;;16.80;;
50301;SDS011;36550;50.472;19.744;2023-04-16T07:36:52;25.60;;;16.30;;
50301;SDS011;36550;50.472;19.744;2023-04-16T07:39:36;26.50;;;17.20;;
50301;SDS011;36550;50.472;19.744;2023-04-16T07:42:20;27.10;;;18.00;;
50301;SDS011;36550;50.472;19.744;2023-04-16T07:45:04;30.20;;;19.30;;
50301;SDS011;36550;50.472;19.744;2023-04-16T07:47:48;28.40;;;19.40;;
50301;SDS011;36550;50.472;19.744;2023-04-16T07:50:32;33.10;;;20.00;;
50301;SDS011;36550;50.472;19.744;2023-04-16T07:53:16;30.00;;;18.50;;
50301;SDS011;36550;50.472;19.744;2023-04-16T07:56:00;26.30;;;17.50;;
50301;SDS011;36550;50.472;19.744;2023-04-16T07:58:44;27.10;;;17.60;;
50301;SDS011;36550;50.472;19.744;2023-04-16T08:01:28;26.40;;;17.20;;
50301;SDS011;36550;50.472;19.744;2023-04-16T08:04:12;27.60;;;17.90;;
50301;SDS011;36550;50.472;19.744;2023-04-16T08:06:56;29.40;;;18.90;;
50301;SDS011;36550;50.472;19.744;2023-04-16T08:09:50;31.30;;;19.20;;
50301;SDS011;36550;50.472;19.744;2023-04-16T08:12:35;30.60;;;19.20;;
50301;SDS011;36550;50.472;19.744;2023-04-16T08:15:19;24.50;;;16.40;;
50301;SDS011;36550;50.472;19.744;2023-04-16T08:18:03;25.70;;;17.30;;
50301;SDS011;36550;50.472;19.744;2023-04-16T08:20:48;23.50;;;17.20;;
50301;SDS011;36550;50.472;19.744;2023-04-16T08:23:32;27.90;;;18.70;;
50301;SDS011;36550;50.472;19.744;2023-04-16T08:26:16;33.00;;;20.40;;
50301;SDS011;36550;50.472;19.744;2023-04-16T08:29:00;26.40;;;16.70;;
50301;SDS011;36550;50.472;19.744;2023-04-16T08:31:44;29.00;;;18.30;;
50301;SDS011;36550;50.472;19.744;2023-04-16T08:34:28;27.90;;;17.20;;
50301;SDS011;36550;50.472;19.744;2023-04-16T08:37:12;28.00;;;17.90;;
50301;SDS011;36550;50.472;19.744;2023-04-16T08:39:56;27.20;;;17.80;;
50301;SDS011;36550;50.472;19.744;2023-04-16T08:42:52;29.90;;;19.10;;
50301;SDS011;36550;50.472;19.744;2023-04-16T08:45:41;29.20;;;17.80;;
50301;SDS011;36550;50.472;19.744;2023-04-16T08:48:27;33.40;;;18.40;;
50301;SDS011;36550;50.472;19.744;2023-04-16T08:51:15;30.40;;;19.00;;
50301;SDS011;36550;50.472;19.744;2023-04-16T08:54:02;29.40;;;19.10;;
50301;SDS011;36550;50.472;19.744;2023-04-16T08:56:47;27.80;;;17.50;;
50301;SDS011;36550;50.472;19.744;2023-04-16T08:59:33;29.30;;;18.80;;
50301;SDS011;36550;50.472;19.744;2023-04-16T09:02:17;29.20;;;17.60;;
50301;SDS011;36550;50.472;19.744;2023-04-16T09:05:02;32.40;;;18.90;;
50301;SDS011;36550;50.472;19.744;2023-04-16T09:07:48;31.30;;;18.90;;
50301;SDS011;36550;50.472;19.744;2023-04-16T09:10:32;26.20;;;17.00;;
50301;SDS011;36550;50.472;19.744;2023-04-16T09:13:16;28.70;;;18.10;;
50301;SDS011;36550;50.472;19.744;2023-04-16T09:16:03;27.10;;;17.70;;
50301;SDS011;36550;50.472;19.744;2023-04-16T09:18:48;29.40;;;19.20;;
50301;SDS011;36550;50.472;19.744;2023-04-16T09:21:33;31.30;;;19.40;;
50301;SDS011;36550;50.472;19.744;2023-04-16T09:24:17;31.00;;;18.10;;
50301;SDS011;36550;50.472;19.744;2023-04-16T09:27:01;25.30;;;15.70;;
50301;SDS011;36550;50.472;19.744;2023-04-16T09:29:45;27.00;;;18.10;;
50301;SDS011;36550;50.472;19.744;2023-04-16T09:32:29;29.80;;;18.60;;
50301;SDS011;36550;50.472;19.744;2023-04-16T09:35:13;29.70;;;21.00;;
50301;SDS011;36550;50.472;19.744;2023-04-16T09:37:58;37.00;;;24.10;;
50301;SDS011;36550;50.472;19.744;2023-04-16T09:40:42;27.90;;;18.80;;
50301;SDS011;36550;50.472;19.744;2023-04-16T09:43:26;25.30;;;17.70;;
50301;SDS011;36550;50.472;19.744;2023-04-16T09:46:10;27.90;;;18.80;;
50301;SDS011;36550;50.472;19.744;2023-04-16T09:48:55;26.70;;;17.70;;
50301;SDS011;36550;50.472;19.744;2023-04-16T09:51:47;24.50;;;17.00;;
50301;SDS011;36550;50.472;19.744;2023-04-16T09:54:33;27.40;;;17.50;;
50301;SDS011;36550;50.472;19.744;2023-04-16T09:57:21;24.80;;;16.90;;
50301;SDS011;36550;50.472;19.744;2023-04-16T10:00:09;27.10;;;18.60;;
50301;SDS011;36550;50.472;19.744;2023-04-16T10:03:02;26.40;;;18.70;;
50301;SDS011;36550;50.472;19.744;2023-04-16T10:05:48;26.60;;;18.00;;
50301;SDS011;36550;50.472;19.744;2023-04-16T10:08:36;24.60;;;17.00;;
50301;SDS011;36550;50.472;19.744;2023-04-16T10:11:19;22.20;;;15.90;;
50301;SDS011;36550;50.472;19.744;2023-04-16T10:14:03;26.20;;;17.90;;
50301;SDS011;36550;50.472;19.744;2023-04-16T10:16:47;28.40;;;19.50;;
50301;SDS011;36550;50.472;19.744;2023-04-16T10:19:32;21.80;;;17.00;;
50301;SDS011;36550;50.472;19.744;2023-04-16T10:22:16;22.80;;;14.70;;
50301;SDS011;36550;50.472;19.744;2023-04-16T10:25:00;21.00;;;14.80;;
50301;SDS011;36550;50.472;19.744;2023-04-16T10:27:45;20.20;;;14.40;;
50301;SDS011;36550;50.472;19.744;2023-04-16T10:30:29;27.90;;;19.30;;
50301;SDS011;36550;50.472;19.744;2023-04-16T10:33:14;21.90;;;15.70;;
50301;SDS011;36550;50.472;19.744;2023-04-16T10:36:08;26.90;;;19.20;;
50301;SDS011;36550;50.472;19.744;2023-04-16T10:38:54;31.30;;;18.70;;
50301;SDS011;36550;50.472;19.744;2023-04-16T10:41:40;28.70;;;19.70;;
50301;SDS011;36550;50.472;19.744;2023-04-16T10:44:25;30.50;;;20.20;;
50301;SDS011;36550;50.472;19.744;2023-04-16T10:47:09;24.90;;;17.20;;
50301;SDS011;36550;50.472;19.744;2023-04-16T10:49:58;22.80;;;15.80;;
50301;SDS011;36550;50.472;19.744;2023-04-16T10:52:41;22.10;;;16.10;;
50301;SDS011;36550;50.472;19.744;2023-04-16T10:55:25;23.50;;;16.00;;
50301;SDS011;36550;50.472;19.744;2023-04-16T10:58:27;24.80;;;15.20;;
50301;SDS011;36550;50.472;19.744;2023-04-16T11:01:14;24.10;;;16.10;;
50301;SDS011;36550;50.472;19.744;2023-04-16T11:04:00;25.90;;;18.40;;
50301;SDS011;36550;50.472;19.744;2023-04-16T11:12:48;22.00;;;15.40;;
50301;SDS011;36550;50.472;19.744;2023-04-16T11:15:33;24.80;;;16.50;;
50301;SDS011;36550;50.472;19.744;2023-04-16T11:18:18;18.20;;;12.90;;
50301;SDS011;36550;50.472;19.744;2023-04-16T11:21:02;16.10;;;12.00;;
50301;SDS011;36550;50.472;19.744;2023-04-16T11:23:51;21.20;;;14.70;;
50301;SDS011;36550;50.472;19.744;2023-04-16T11:29:20;21.80;;;15.10;;
50301;SDS011;36550;50.472;19.744;2023-04-16T11:32:04;20.00;;;14.10;;
50301;SDS011;36550;50.472;19.744;2023-04-16T11:34:48;21.40;;;14.90;;
50301;SDS011;36550;50.472;19.744;2023-04-16T11:37:32;24.30;;;15.30;;
50301;SDS011;36550;50.472;19.744;2023-04-16T11:40:18;23.50;;;14.90;;
50301;SDS011;36550;50.472;19.744;2023-04-16T11:43:03;18.50;;;13.20;;
50301;SDS011;36550;50.472;19.744;2023-04-16T11:45:57;20.60;;;13.20;;
50301;SDS011;36550;50.472;19.744;2023-04-16T11:48:47;25.50;;;15.80;;
50301;SDS011;36550;50.472;19.744;2023-04-16T11:51:42;22.00;;;15.50;;
50301;SDS011;36550;50.472;19.744;2023-04-16T11:54:27;23.40;;;15.50;;
50301;SDS011;36550;50.472;19.744;2023-04-16T11:57:23;25.10;;;15.20;;
50301;SDS011;36550;50.472;19.744;2023-04-16T12:00:11;22.10;;;14.60;;
50301;SDS011;36550;50.472;19.744;2023-04-16T12:02:56;22.30;;;13.40;;
50301;SDS011;36550;50.472;19.744;2023-04-16T12:05:39;22.20;;;14.60;;
50301;SDS011;36550;50.472;19.744;2023-04-16T12:08:29;21.70;;;13.30;;
50301;SDS011;36550;50.472;19.744;2023-04-16T12:11:13;20.30;;;14.40;;
50301;SDS011;36550;50.472;19.744;2023-04-16T12:14:09;19.40;;;12.70;;
50301;SDS011;36550;50.472;19.744;2023-04-16T12:16:55;18.50;;;13.30;;
50301;SDS011;36550;50.472;19.744;2023-04-16T12:19:49;22.20;;;12.10;;
50301;SDS011;36550;50.472;19.744;2023-04-16T12:22:45;18.40;;;12.90;;
50301;SDS011;36550;50.472;19.744;2023-04-16T12:25:30;20.90;;;13.50;;
50301;SDS011;36550;50.472;19.744;2023-04-16T12:28:30;18.60;;;13.30;;
50301;SDS011;36550;50.472;19.744;2023-04-16T12:31:15;22.10;;;13.30;;
50301;SDS011;36550;50.472;19.744;2023-04-16T12:34:02;20.20;;;12.80;;
50301;SDS011;36550;50.472;19.744;2023-04-16T12:36:46;20.40;;;12.70;;
50301;SDS011;36550;50.472;19.744;2023-04-16T12:39:32;19.00;;;11.90;;
50301;SDS011;36550;50.472;19.744;2023-04-16T12:42:16;19.50;;;13.60;;
50301;SDS011;36550;50.472;19.744;2023-04-16T12:45:00;17.00;;;12.60;;
50301;SDS011;36550;50.472;19.744;2023-04-16T12:47:46;17.80;;;12.40;;
50301;SDS011;36550;50.472;19.744;2023-04-16T12:50:30;17.60;;;13.10;;
50301;SDS011;36550;50.472;19.744;2023-04-16T12:53:14;17.90;;;12.80;;
50301;SDS011;36550;50.472;19.744;2023-04-16T12:55:58;17.60;;;13.00;;
50301;SDS011;36550;50.472;19.744;2023-04-16T12:58:42;18.60;;;12.60;;
50301;SDS011;36550;50.472;19.744;2023-04-16T13:01:26;15.20;;;12.00;;
50301;SDS011;36550;50.472;19.744;2023-04-16T13:04:10;18.30;;;12.10;;
50301;SDS011;36550;50.472;19.744;2023-04-16T13:06:54;19.70;;;12.10;;
50301;SDS011;36550;50.472;19.744;2023-04-16T13:09:38;17.00;;;11.70;;
50301;SDS011;36550;50.472;19.744;2023-04-16T13:12:22;15.70;;;11.00;;
50301;SDS011;36550;50.472;19.744;2023-04-16T13:15:06;15.50;;;11.00;;
50301;SDS011;36550;50.472;19.744;2023-04-16T13:17:50;16.70;;;10.90;;
50301;SDS011;36550;50.472;19.744;2023-04-16T13:20:35;15.40;;;11.50;;
50301;SDS011;36550;50.472;19.744;2023-04-16T13:23:19;15.40;;;11.70;;
50301;SDS011;36550;50.472;19.744;2023-04-16T13:26:03;14.80;;;11.00;;
50301;SDS011;36550;50.472;19.744;2023-04-16T13:28:47;14.70;;;10.70;;
50301;SDS011;36550;50.472;19.744;2023-04-16T13:31:31;14.10;;;11.20;;
50301;SDS011;36550;50.472;19.744;2023-04-16T13:34:15;17.00;;;12.20;;
50301;SDS011;36550;50.472;19.744;2023-04-16T13:36:59;15.40;;;11.60;;
50301;SDS011;36550;50.472;19.744;2023-04-16T13:39:43;15.30;;;12.00;;
50301;SDS011;36550;50.472;19.744;2023-04-16T13:42:27;18.10;;;11.50;;
50301;SDS011;36550;50.472;19.744;2023-04-16T13:45:11;14.80;;;12.40;;
50301;SDS011;36550;50.472;19.744;2023-04-16T13:47:56;17.80;;;12.00;;
50301;SDS011;36550;50.472;19.744;2023-04-16T13:50:39;14.60;;;12.10;;
50301;SDS011;36550;50.472;19.744;2023-04-16T13:53:23;15.50;;;12.10;;
50301;SDS011;36550;50.472;19.744;2023-04-16T13:56:07;17.40;;;12.80;;
50301;SDS011;36550;50.472;19.744;2023-04-16T13:58:51;18.70;;;12.50;;
50301;SDS011;36550;50.472;19.744;2023-04-16T14:01:34;16.00;;;11.40;;
50301;SDS011;36550;50.472;19.744;2023-04-16T14:04:19;14.70;;;11.10;;
50301;SDS011;36550;50.472;19.744;2023-04-16T14:07:04;14.70;;;10.70;;
50301;SDS011;36550;50.472;19.744;2023-04-16T14:09:48;17.10;;;11.20;;
50301;SDS011;36550;50.472;19.744;2023-04-16T14:12:33;15.70;;;11.20;;
50301;SDS011;36550;50.472;19.744;2023-04-16T14:15:17;15.40;;;11.20;;
50301;SDS011;36550;50.472;19.744;2023-04-16T14:18:01;15.10;;;11.80;;
50301;SDS011;36550;50.472;19.744;2023-04-16T14:20:46;15.00;;;11.40;;
50301;SDS011;36550;50.472;19.744;2023-04-16T14:23:30;15.40;;;12.50;;
50301;SDS011;36550;50.472;19.744;2023-04-16T14:26:14;16.30;;;12.60;;
50301;SDS011;36550;50.472;19.744;2023-04-16T14:28:58;15.40;;;12.00;;
50301;SDS011;36550;50.472;19.744;2023-04-16T14:31:42;15.80;;;11.40;;
50301;SDS011;36550;50.472;19.744;2023-04-16T14:34:26;15.50;;;11.60;;
50301;SDS011;36550;50.472;19.744;2023-04-16T14:37:10;15.80;;;11.40;;
50301;SDS011;36550;50.472;19.744;2023-04-16T14:39:54;14.70;;;12.00;;
50301;SDS011;36550;50.472;19.744;2023-04-16T14:42:39;16.00;;;11.00;;
50301;SDS011;36550;50.472;19.744;2023-04-16T14:45:22;17.80;;;12.60;;
50301;SDS011;36550;50.472;19.744;2023-04-16T14:48:08;14.10;;;10.60;;
50301;SDS011;36550;50.472;19.744;2023-04-16T14:50:52;13.90;;;10.60;;
50301;SDS011;36550;50.472;19.744;2023-04-16T14:53:37;14.60;;;10.10;;
50301;SDS011;36550;50.472;19.744;2023-04-16T14:56:21;13.60;;;10.80;;
50301;SDS011;36550;50.472;19.744;2023-04-16T14:59:05;14.30;;;10.70;;
50301;SDS011;36550;50.472;19.744;2023-04-16T15:01:49;15.60;;;10.40;;
50301;SDS011;36550;50.472;19.744;2023-04-16T15:04:33;13.00;;;9.90;;
50301;SDS011;36550;50.472;19.744;2023-04-16T15:07:17;13.90;;;9.70;;
50301;SDS011;36550;50.472;19.744;2023-04-16T15:10:01;11.80;;;9.30;;
50301;SDS011;36550;50.472;19.744;2023-04-16T15:12:46;14.00;;;9.50;;
50301;SDS011;36550;50.472;19.744;2023-04-16T15:15:30;14.10;;;9.30;;
50301;SDS011;36550;50.472;19.744;2023-04-16T15:18:14;15.90;;;9.40;;
50301;SDS011;36550;50.472;19.744;2023-04-16T15:20:59;11.70;;;8.70;;
50301;SDS011;36550;50.472;19.744;2023-04-16T15:23:43;11.90;;;8.40;;
50301;SDS011;36550;50.472;19.744;2023-04-16T15:26:27;11.60;;;8.70;;
50301;SDS011;36550;50.472;19.744;2023-04-16T15:29:12;11.70;;;8.90;;
50301;SDS011;36550;50.472;19.744;2023-04-16T15:31:56;11.80;;;10.20;;
50301;SDS011;36550;50.472;19.744;2023-04-16T15:34:40;12.30;;;9.30;;
50301;SDS011;36550;50.472;19.744;2023-04-16T15:37:24;12.60;;;9.20;;
50301;SDS011;36550;50.472;19.744;2023-04-16T15:40:08;17.00;;;13.80;;
50301;SDS011;36550;50.472;19.744;2023-04-16T15:42:56;15.10;;;10.30;;
50301;SDS011;36550;50.472;19.744;2023-04-16T15:45:40;13.20;;;9.70;;
50301;SDS011;36550;50.472;19.744;2023-04-16T15:48:23;12.50;;;9.40;;
50301;SDS011;36550;50.472;19.744;2023-04-16T15:51:08;11.90;;;8.60;;
50301;SDS011;36550;50.472;19.744;2023-04-16T15:53:52;9.50;;;8.10;;
50301;SDS011;36550;50.472;19.744;2023-04-16T15:56:36;10.00;;;8.50;;
50301;SDS011;36550;50.472;19.744;2023-04-16T15:59:20;11.70;;;8.20;;
50301;SDS011;36550;50.472;19.744;2023-04-16T16:02:04;11.30;;;8.60;;
50301;SDS011;36550;50.472;19.744;2023-04-16T16:04:48;12.00;;;9.10;;